sensor_id;sensor_type;location;lat;lon;timestamp;P1;durP1;ratioP1;P2;durP2;ratioP2
489;SDS011;231;48.120;11.576;2023-04-03T00:01:08;22.27;;;20.47;;
489;SDS011;231;48.120;11.576;2023-04-03T00:03:36;23.03;;;21.10;;
489;SDS011;231;48.120;11.576;2023-04-03T00:06:03;28.17;;;20.40;;
489;SDS011;231;48.120;11.576;2023-04-03T00:08:32;23.67;;;21.17;;
489;SDS011;231;48.120;11.576;2023-04-03T00:11:00;22.20;;;21.13;;
489;SDS011;231;48.120;11.576;2023-04-03T00:13:28;22.70;;;20.70;;
489;SDS011;231;48.120;11.576;2023-04-03T00:15:55;35.43;;;20.53;;
489;SDS011;231;48.120;11.576;2023-04-03T00:18:22;21.17;;;19.60;;
489;SDS011;231;48.120;11.576;2023-04-03T00:20:49;22.43;;;19.90;;
489;SDS011;231;48.120;11.576;2023-04-03T00:23:16;22.43;;;20.47;;
489;SDS011;231;48.120;11.576;2023-04-03T00:25:43;24.17;;;22.07;;
489;SDS011;231;48.120;11.576;2023-04-03T00:28:11;22.83;;;21.73;;
489;SDS011;231;48.120;11.576;2023-04-03T00:30:38;23.23;;;21.63;;
489;SDS011;231;48.120;11.576;2023-04-03T00:33:06;21.77;;;20.67;;
489;SDS011;231;48.120;11.576;2023-04-03T00:35:33;22.90;;;20.50;;
489;SDS011;231;48.120;11.576;2023-04-03T00:38:00;27.47;;;21.37;;
489;SDS011;231;48.120;11.576;2023-04-03T00:40:27;23.03;;;21.57;;
489;SDS011;231;48.120;11.576;2023-04-03T00:42:59;25.00;;;21.50;;
489;SDS011;231;48.120;11.576;2023-04-03T00:45:37;23.73;;;20.50;;
489;SDS011;231;48.120;11.576;2023-04-03T00:48:06;23.23;;;19.43;;
489;SDS011;231;48.120;11.576;2023-04-03T00:50:36;20.87;;;18.53;;
489;SDS011;231;48.120;11.576;2023-04-03T00:53:06;24.43;;;19.37;;
489;SDS011;231;48.120;11.576;2023-04-03T00:55:35;26.97;;;19.13;;
489;SDS011;231;48.120;11.576;2023-04-03T00:58:03;20.17;;;19.10;;
489;SDS011;231;48.120;11.576;2023-04-03T01:00:33;24.97;;;18.77;;
489;SDS011;231;48.120;11.576;2023-04-03T01:03:04;22.37;;;20.63;;
489;SDS011;231;48.120;11.576;2023-04-03T01:05:31;24.30;;;19.57;;
489;SDS011;231;48.120;11.576;2023-04-03T01:07:58;22.77;;;19.97;;
489;SDS011;231;48.120;11.576;2023-04-03T01:10:26;21.30;;;19.53;;
489;SDS011;231;48.120;11.576;2023-04-03T01:12:53;20.37;;;19.30;;
489;SDS011;231;48.120;11.576;2023-04-03T01:15:21;18.60;;;17.50;;
489;SDS011;231;48.120;11.576;2023-04-03T01:17:51;20.87;;;19.57;;
489;SDS011;231;48.120;11.576;2023-04-03T01:23:30;23.30;;;18.93;;
489;SDS011;231;48.120;11.576;2023-04-03T01:26:04;22.37;;;18.47;;
489;SDS011;231;48.120;11.576;2023-04-03T01:28:31;21.47;;;18.07;;
489;SDS011;231;48.120;11.576;2023-04-03T01:31:00;25.20;;;22.40;;
489;SDS011;231;48.120;11.576;2023-04-03T01:33:35;20.97;;;19.37;;
489;SDS011;231;48.120;11.576;2023-04-03T01:36:03;20.27;;;19.00;;
489;SDS011;231;48.120;11.576;2023-04-03T01:38:31;19.07;;;18.07;;
489;SDS011;231;48.120;11.576;2023-04-03T01:40:58;22.93;;;19.60;;
489;SDS011;231;48.120;11.576;2023-04-03T01:43:25;18.03;;;17.13;;
489;SDS011;231;48.120;11.576;2023-04-03T01:45:52;20.37;;;18.77;;
489;SDS011;231;48.120;11.576;2023-04-03T01:48:19;23.40;;;19.53;;
489;SDS011;231;48.120;11.576;2023-04-03T01:50:48;22.30;;;17.93;;
489;SDS011;231;48.120;11.576;2023-04-03T01:53:14;21.17;;;19.07;;
489;SDS011;231;48.120;11.576;2023-04-03T01:55:41;19.70;;;18.70;;
489;SDS011;231;48.120;11.576;2023-04-03T01:58:08;21.50;;;20.40;;
489;SDS011;231;48.120;11.576;2023-04-03T02:00:35;19.67;;;18.70;;
489;SDS011;231;48.120;11.576;2023-04-03T02:03:02;20.53;;;19.30;;
489;SDS011;231;48.120;11.576;2023-04-03T02:05:29;18.40;;;17.50;;
489;SDS011;231;48.120;11.576;2023-04-03T02:07:57;21.50;;;18.77;;
489;SDS011;231;48.120;11.576;2023-04-03T02:10:24;22.03;;;19.33;;
489;SDS011;231;48.120;11.576;2023-04-03T02:12:51;20.40;;;18.80;;
489;SDS011;231;48.120;11.576;2023-04-03T02:15:18;21.40;;;17.63;;
489;SDS011;231;48.120;11.576;2023-04-03T02:17:45;18.70;;;17.80;;
489;SDS011;231;48.120;11.576;2023-04-03T02:20:12;21.37;;;20.20;;
489;SDS011;231;48.120;11.576;2023-04-03T02:22:39;19.20;;;18.20;;
489;SDS011;231;48.120;11.576;2023-04-03T02:25:08;18.83;;;17.90;;
489;SDS011;231;48.120;11.576;2023-04-03T02:27:35;19.23;;;18.23;;
489;SDS011;231;48.120;11.576;2023-04-03T02:30:02;20.40;;;19.40;;
489;SDS011;231;48.120;11.576;2023-04-03T02:32:30;19.20;;;18.23;;
489;SDS011;231;48.120;11.576;2023-04-03T02:34:57;21.33;;;20.23;;
489;SDS011;231;48.120;11.576;2023-04-03T02:37:24;19.97;;;18.97;;
489;SDS011;231;48.120;11.576;2023-04-03T02:39:50;19.20;;;18.20;;
489;SDS011;231;48.120;11.576;2023-04-03T02:42:19;17.93;;;17.03;;
489;SDS011;231;48.120;11.576;2023-04-03T02:44:45;17.87;;;16.50;;
489;SDS011;231;48.120;11.576;2023-04-03T02:47:12;17.67;;;16.83;;
489;SDS011;231;48.120;11.576;2023-04-03T02:49:39;19.23;;;17.40;;
489;SDS011;231;48.120;11.576;2023-04-03T02:52:06;18.20;;;17.30;;
489;SDS011;231;48.120;11.576;2023-04-03T02:54:32;17.30;;;16.40;;
489;SDS011;231;48.120;11.576;2023-04-03T02:57:00;16.47;;;15.67;;
489;SDS011;231;48.120;11.576;2023-04-03T02:59:28;17.37;;;16.47;;
489;SDS011;231;48.120;11.576;2023-04-03T03:01:55;17.50;;;16.60;;
489;SDS011;231;48.120;11.576;2023-04-03T03:04:22;17.70;;;16.80;;
489;SDS011;231;48.120;11.576;2023-04-03T03:06:49;16.50;;;15.00;;
489;SDS011;231;48.120;11.576;2023-04-03T03:09:16;17.17;;;16.27;;
489;SDS011;231;48.120;11.576;2023-04-03T03:11:43;14.63;;;13.90;;
489;SDS011;231;48.120;11.576;2023-04-03T03:14:09;14.67;;;13.93;;
489;SDS011;231;48.120;11.576;2023-04-03T03:16:38;15.73;;;14.93;;
489;SDS011;231;48.120;11.576;2023-04-03T03:19:04;13.97;;;13.27;;
489;SDS011;231;48.120;11.576;2023-04-03T03:21:32;14.03;;;13.33;;
489;SDS011;231;48.120;11.576;2023-04-03T03:23:59;14.50;;;13.80;;
489;SDS011;231;48.120;11.576;2023-04-03T03:26:25;15.70;;;13.53;;
489;SDS011;231;48.120;11.576;2023-04-03T03:28:52;13.03;;;12.00;;
489;SDS011;231;48.120;11.576;2023-04-03T03:31:19;14.43;;;13.70;;
489;SDS011;231;48.120;11.576;2023-04-03T03:33:47;11.80;;;11.20;;
489;SDS011;231;48.120;11.576;2023-04-03T03:36:14;11.43;;;10.50;;
489;SDS011;231;48.120;11.576;2023-04-03T03:38:41;11.90;;;11.30;;
489;SDS011;231;48.120;11.576;2023-04-03T03:41:07;11.33;;;10.33;;
489;SDS011;231;48.120;11.576;2023-04-03T03:43:34;10.57;;;10.00;;
489;SDS011;231;48.120;11.576;2023-04-03T03:46:01;10.80;;;10.20;;
489;SDS011;231;48.120;11.576;2023-04-03T03:48:28;10.43;;;9.90;;
489;SDS011;231;48.120;11.576;2023-04-03T03:50:56;10.33;;;9.83;;
489;SDS011;231;48.120;11.576;2023-04-03T03:53:23;10.10;;;9.60;;
489;SDS011;231;48.120;11.576;2023-04-03T03:55:50;9.90;;;9.40;;
489;SDS011;231;48.120;11.576;2023-04-03T03:58:17;10.17;;;9.60;;
489;SDS011;231;48.120;11.576;2023-04-03T04:00:44;9.53;;;9.03;;
489;SDS011;231;48.120;11.576;2023-04-03T04:03:11;9.40;;;8.90;;
489;SDS011;231;48.120;11.576;2023-04-03T04:05:38;9.40;;;8.90;;
489;SDS011;231;48.120;11.576;2023-04-03T04:08:06;7.83;;;7.43;;
489;SDS011;231;48.120;11.576;2023-04-03T04:10:33;8.00;;;7.60;;
489;SDS011;231;48.120;11.576;2023-04-03T04:13:00;10.00;;;8.30;;
489;SDS011;231;48.120;11.576;2023-04-03T04:15:27;7.70;;;7.30;;
489;SDS011;231;48.120;11.576;2023-04-03T04:17:54;7.80;;;7.40;;
489;SDS011;231;48.120;11.576;2023-04-03T04:20:22;8.10;;;7.70;;
489;SDS011;231;48.120;11.576;2023-04-03T04:22:49;7.43;;;7.03;;
489;SDS011;231;48.120;11.576;2023-04-03T04:25:17;11.73;;;9.50;;
489;SDS011;231;48.120;11.576;2023-04-03T04:27:44;7.67;;;7.27;;
489;SDS011;231;48.120;11.576;2023-04-03T04:30:11;7.20;;;6.80;;
489;SDS011;231;48.120;11.576;2023-04-03T04:32:39;7.43;;;7.03;;
489;SDS011;231;48.120;11.576;2023-04-03T04:35:06;7.93;;;7.53;;
489;SDS011;231;48.120;11.576;2023-04-03T04:37:33;7.40;;;7.00;;
489;SDS011;231;48.120;11.576;2023-04-03T04:40:00;7.53;;;7.13;;
489;SDS011;231;48.120;11.576;2023-04-03T04:42:28;8.27;;;7.70;;
489;SDS011;231;48.120;11.576;2023-04-03T04:44:55;8.17;;;7.77;;
489;SDS011;231;48.120;11.576;2023-04-03T04:47:22;7.50;;;7.10;;
489;SDS011;231;48.120;11.576;2023-04-03T04:49:49;6.50;;;6.10;;
489;SDS011;231;48.120;11.576;2023-04-03T04:52:16;8.20;;;7.80;;
489;SDS011;231;48.120;11.576;2023-04-03T04:54:43;7.10;;;6.70;;
489;SDS011;231;48.120;11.576;2023-04-03T04:57:11;7.40;;;7.00;;
489;SDS011;231;48.120;11.576;2023-04-03T04:59:39;7.53;;;7.20;;
489;SDS011;231;48.120;11.576;2023-04-03T05:02:05;7.17;;;6.77;;
489;SDS011;231;48.120;11.576;2023-04-03T05:04:32;7.97;;;7.57;;
489;SDS011;231;48.120;11.576;2023-04-03T05:06:59;7.30;;;6.90;;
489;SDS011;231;48.120;11.576;2023-04-03T05:09:26;6.27;;;5.93;;
489;SDS011;231;48.120;11.576;2023-04-03T05:11:53;6.70;;;6.27;;
489;SDS011;231;48.120;11.576;2023-04-03T05:14:21;6.93;;;6.53;;
489;SDS011;231;48.120;11.576;2023-04-03T05:16:49;6.80;;;6.40;;
489;SDS011;231;48.120;11.576;2023-04-03T05:19:18;7.60;;;7.20;;
489;SDS011;231;48.120;11.576;2023-04-03T05:21:45;7.10;;;6.70;;
489;SDS011;231;48.120;11.576;2023-04-03T05:24:12;7.50;;;7.10;;
489;SDS011;231;48.120;11.576;2023-04-03T05:26:39;7.10;;;6.70;;
489;SDS011;231;48.120;11.576;2023-04-03T05:29:06;8.77;;;8.27;;
489;SDS011;231;48.120;11.576;2023-04-03T05:31:33;8.47;;;8.00;;
489;SDS011;231;48.120;11.576;2023-04-03T05:34:02;7.00;;;6.60;;
489;SDS011;231;48.120;11.576;2023-04-03T05:36:29;6.47;;;6.07;;
489;SDS011;231;48.120;11.576;2023-04-03T05:38:56;7.33;;;6.93;;
489;SDS011;231;48.120;11.576;2023-04-03T05:41:23;6.97;;;6.57;;
489;SDS011;231;48.120;11.576;2023-04-03T05:43:49;6.10;;;5.80;;
489;SDS011;231;48.120;11.576;2023-04-03T05:46:18;6.70;;;6.30;;
489;SDS011;231;48.120;11.576;2023-04-03T05:48:46;7.50;;;6.70;;
489;SDS011;231;48.120;11.576;2023-04-03T05:51:15;7.97;;;7.47;;
489;SDS011;231;48.120;11.576;2023-04-03T05:53:43;7.30;;;6.73;;
489;SDS011;231;48.120;11.576;2023-04-03T05:56:11;7.97;;;6.47;;
489;SDS011;231;48.120;11.576;2023-04-03T05:58:39;7.27;;;6.87;;
489;SDS011;231;48.120;11.576;2023-04-03T06:01:06;6.60;;;6.20;;
489;SDS011;231;48.120;11.576;2023-04-03T06:03:32;7.40;;;7.00;;
489;SDS011;231;48.120;11.576;2023-04-03T06:06:01;6.63;;;6.23;;
489;SDS011;231;48.120;11.576;2023-04-03T06:08:31;5.50;;;5.23;;
489;SDS011;231;48.120;11.576;2023-04-03T06:10:58;7.43;;;6.40;;
489;SDS011;231;48.120;11.576;2023-04-03T06:13:25;6.40;;;6.00;;
489;SDS011;231;48.120;11.576;2023-04-03T06:15:52;6.30;;;5.97;;
489;SDS011;231;48.120;11.576;2023-04-03T06:18:18;6.50;;;6.10;;
489;SDS011;231;48.120;11.576;2023-04-03T06:20:45;5.87;;;5.63;;
489;SDS011;231;48.120;11.576;2023-04-03T06:23:12;6.80;;;6.37;;
489;SDS011;231;48.120;11.576;2023-04-03T06:25:40;7.00;;;6.60;;
489;SDS011;231;48.120;11.576;2023-04-03T06:28:08;6.87;;;6.47;;
489;SDS011;231;48.120;11.576;2023-04-03T06:30:35;6.03;;;5.70;;
489;SDS011;231;48.120;11.576;2023-04-03T06:33:02;8.93;;;6.80;;
489;SDS011;231;48.120;11.576;2023-04-03T06:35:30;5.60;;;5.30;;
489;SDS011;231;48.120;11.576;2023-04-03T06:37:56;6.90;;;6.00;;
489;SDS011;231;48.120;11.576;2023-04-03T06:40:24;7.33;;;6.93;;
489;SDS011;231;48.120;11.576;2023-04-03T06:42:53;6.27;;;5.97;;
489;SDS011;231;48.120;11.576;2023-04-03T06:45:20;7.70;;;5.50;;
489;SDS011;231;48.120;11.576;2023-04-03T06:47:47;5.60;;;5.30;;
489;SDS011;231;48.120;11.576;2023-04-03T06:50:14;5.73;;;5.27;;
489;SDS011;231;48.120;11.576;2023-04-03T06:52:41;7.60;;;5.40;;
489;SDS011;231;48.120;11.576;2023-04-03T06:55:09;6.33;;;5.97;;
489;SDS011;231;48.120;11.576;2023-04-03T06:57:36;6.57;;;6.17;;
489;SDS011;231;48.120;11.576;2023-04-03T07:00:05;8.30;;;5.90;;
489;SDS011;231;48.120;11.576;2023-04-03T07:02:34;8.63;;;6.10;;
489;SDS011;231;48.120;11.576;2023-04-03T07:05:01;6.60;;;6.20;;
489;SDS011;231;48.120;11.576;2023-04-03T07:07:28;5.90;;;5.60;;
489;SDS011;231;48.120;11.576;2023-04-03T07:09:54;5.63;;;5.33;;
489;SDS011;231;48.120;11.576;2023-04-03T07:12:21;6.50;;;6.10;;
489;SDS011;231;48.120;11.576;2023-04-03T07:14:48;5.53;;;5.23;;
489;SDS011;231;48.120;11.576;2023-04-03T07:17:16;7.50;;;6.27;;
489;SDS011;231;48.120;11.576;2023-04-03T07:19:43;5.30;;;5.00;;
489;SDS011;231;48.120;11.576;2023-04-03T07:22:10;5.50;;;5.23;;
489;SDS011;231;48.120;11.576;2023-04-03T07:24:38;5.40;;;5.10;;
489;SDS011;231;48.120;11.576;2023-04-03T07:27:04;6.33;;;5.97;;
489;SDS011;231;48.120;11.576;2023-04-03T07:29:33;7.30;;;5.87;;
489;SDS011;231;48.120;11.576;2023-04-03T07:32:01;5.50;;;5.20;;
489;SDS011;231;48.120;11.576;2023-04-03T07:34:29;5.47;;;5.17;;
489;SDS011;231;48.120;11.576;2023-04-03T07:36:56;6.90;;;5.90;;
489;SDS011;231;48.120;11.576;2023-04-03T07:39:23;5.90;;;5.60;;
489;SDS011;231;48.120;11.576;2023-04-03T07:41:51;7.90;;;6.33;;
489;SDS011;231;48.120;11.576;2023-04-03T07:44:18;6.70;;;6.30;;
489;SDS011;231;48.120;11.576;2023-04-03T07:46:44;5.83;;;5.53;;
489;SDS011;231;48.120;11.576;2023-04-03T07:49:11;6.80;;;6.40;;
489;SDS011;231;48.120;11.576;2023-04-03T07:51:40;5.80;;;5.50;;
489;SDS011;231;48.120;11.576;2023-04-03T07:54:07;8.33;;;6.10;;
489;SDS011;231;48.120;11.576;2023-04-03T07:56:33;7.30;;;6.90;;
489;SDS011;231;48.120;11.576;2023-04-03T07:59:00;7.33;;;6.93;;
489;SDS011;231;48.120;11.576;2023-04-03T08:01:27;7.70;;;7.30;;
489;SDS011;231;48.120;11.576;2023-04-03T08:03:57;8.23;;;7.83;;
489;SDS011;231;48.120;11.576;2023-04-03T08:06:24;7.17;;;6.77;;
489;SDS011;231;48.120;11.576;2023-04-03T08:08:52;7.37;;;6.97;;
489;SDS011;231;48.120;11.576;2023-04-03T08:11:19;8.63;;;8.13;;
489;SDS011;231;48.120;11.576;2023-04-03T08:13:46;6.90;;;6.50;;
489;SDS011;231;48.120;11.576;2023-04-03T08:16:15;8.10;;;7.70;;
489;SDS011;231;48.120;11.576;2023-04-03T08:18:43;7.70;;;7.30;;
489;SDS011;231;48.120;11.576;2023-04-03T08:21:11;8.10;;;7.70;;
489;SDS011;231;48.120;11.576;2023-04-03T08:23:38;8.23;;;7.83;;
489;SDS011;231;48.120;11.576;2023-04-03T08:26:10;9.17;;;8.67;;
489;SDS011;231;48.120;11.576;2023-04-03T08:28:39;7.80;;;7.40;;
489;SDS011;231;48.120;11.576;2023-04-03T08:31:07;7.10;;;6.70;;
489;SDS011;231;48.120;11.576;2023-04-03T08:33:36;7.90;;;7.50;;
489;SDS011;231;48.120;11.576;2023-04-03T08:36:05;7.17;;;6.77;;
489;SDS011;231;48.120;11.576;2023-04-03T08:38:33;7.57;;;7.17;;
489;SDS011;231;48.120;11.576;2023-04-03T08:41:04;7.67;;;7.27;;
489;SDS011;231;48.120;11.576;2023-04-03T08:43:42;6.40;;;6.00;;
489;SDS011;231;48.120;11.576;2023-04-03T08:46:22;7.67;;;7.27;;
489;SDS011;231;48.120;11.576;2023-04-03T08:48:56;6.57;;;6.17;;
489;SDS011;231;48.120;11.576;2023-04-03T08:51:25;7.07;;;6.67;;
489;SDS011;231;48.120;11.576;2023-04-03T08:53:55;6.87;;;6.47;;
489;SDS011;231;48.120;11.576;2023-04-03T08:56:31;7.50;;;7.00;;
489;SDS011;231;48.120;11.576;2023-04-03T08:59:03;7.37;;;6.97;;
489;SDS011;231;48.120;11.576;2023-04-03T09:01:37;6.53;;;6.13;;
489;SDS011;231;48.120;11.576;2023-04-03T09:04:09;6.80;;;6.40;;
489;SDS011;231;48.120;11.576;2023-04-03T09:06:39;7.30;;;6.90;;
489;SDS011;231;48.120;11.576;2023-04-03T09:09:11;6.90;;;6.53;;
489;SDS011;231;48.120;11.576;2023-04-03T09:11:46;6.33;;;5.83;;
489;SDS011;231;48.120;11.576;2023-04-03T09:14:22;7.17;;;6.77;;
489;SDS011;231;48.120;11.576;2023-04-03T09:16:58;6.50;;;6.10;;
489;SDS011;231;48.120;11.576;2023-04-03T09:19:30;6.37;;;6.00;;
489;SDS011;231;48.120;11.576;2023-04-03T09:22:12;6.57;;;6.17;;
489;SDS011;231;48.120;11.576;2023-04-03T09:24:43;7.90;;;6.60;;
489;SDS011;231;48.120;11.576;2023-04-03T09:27:14;7.17;;;6.77;;
489;SDS011;231;48.120;11.576;2023-04-03T09:29:42;7.37;;;6.97;;
489;SDS011;231;48.120;11.576;2023-04-03T09:32:21;5.50;;;5.20;;
489;SDS011;231;48.120;11.576;2023-04-03T09:34:53;6.67;;;6.27;;
489;SDS011;231;48.120;11.576;2023-04-03T09:37:33;6.60;;;6.20;;
489;SDS011;231;48.120;11.576;2023-04-03T09:40:05;6.70;;;6.30;;
489;SDS011;231;48.120;11.576;2023-04-03T09:42:56;6.80;;;5.80;;
489;SDS011;231;48.120;11.576;2023-04-03T09:45:25;6.53;;;6.00;;
489;SDS011;231;48.120;11.576;2023-04-03T09:48:07;6.13;;;5.67;;
489;SDS011;231;48.120;11.576;2023-04-03T09:50:52;7.70;;;7.30;;
489;SDS011;231;48.120;11.576;2023-04-03T09:53:34;13.57;;;7.73;;
489;SDS011;231;48.120;11.576;2023-04-03T09:56:03;8.00;;;7.60;;
489;SDS011;231;48.120;11.576;2023-04-03T09:58:46;9.70;;;9.20;;
489;SDS011;231;48.120;11.576;2023-04-03T10:01:22;9.87;;;9.37;;
489;SDS011;231;48.120;11.576;2023-04-03T10:04:06;9.70;;;9.23;;
489;SDS011;231;48.120;11.576;2023-04-03T10:06:35;7.70;;;7.30;;
489;SDS011;231;48.120;11.576;2023-04-03T10:09:06;5.93;;;5.63;;
489;SDS011;231;48.120;11.576;2023-04-03T10:11:57;5.73;;;5.43;;
489;SDS011;231;48.120;11.576;2023-04-03T10:14:27;5.80;;;5.50;;
489;SDS011;231;48.120;11.576;2023-04-03T10:16:57;6.03;;;5.73;;
489;SDS011;231;48.120;11.576;2023-04-03T10:19:37;6.40;;;6.00;;
489;SDS011;231;48.120;11.576;2023-04-03T10:22:13;6.87;;;6.47;;
489;SDS011;231;48.120;11.576;2023-04-03T10:24:48;7.60;;;7.20;;
489;SDS011;231;48.120;11.576;2023-04-03T10:27:29;7.40;;;7.00;;
489;SDS011;231;48.120;11.576;2023-04-03T10:30:12;8.27;;;7.87;;
489;SDS011;231;48.120;11.576;2023-04-03T10:32:54;10.00;;;9.50;;
489;SDS011;231;48.120;11.576;2023-04-03T10:35:37;8.60;;;8.10;;
489;SDS011;231;48.120;11.576;2023-04-03T10:38:13;10.23;;;9.73;;
489;SDS011;231;48.120;11.576;2023-04-03T10:40:47;9.93;;;9.43;;
489;SDS011;231;48.120;11.576;2023-04-03T10:43:23;9.00;;;8.50;;
489;SDS011;231;48.120;11.576;2023-04-03T10:46:02;8.93;;;8.43;;
489;SDS011;231;48.120;11.576;2023-04-03T10:48:36;8.20;;;7.80;;
489;SDS011;231;48.120;11.576;2023-04-03T10:51:16;9.17;;;8.00;;
489;SDS011;231;48.120;11.576;2023-04-03T10:53:52;7.73;;;7.20;;
489;SDS011;231;48.120;11.576;2023-04-03T10:56:26;9.37;;;8.87;;
489;SDS011;231;48.120;11.576;2023-04-03T10:58:58;12.10;;;9.33;;
489;SDS011;231;48.120;11.576;2023-04-03T11:01:33;8.93;;;8.43;;
489;SDS011;231;48.120;11.576;2023-04-03T11:04:05;9.33;;;8.87;;
489;SDS011;231;48.120;11.576;2023-04-03T11:06:34;10.17;;;9.67;;
489;SDS011;231;48.120;11.576;2023-04-03T11:09:05;10.57;;;9.97;;
489;SDS011;231;48.120;11.576;2023-04-03T11:11:42;11.60;;;10.87;;
489;SDS011;231;48.120;11.576;2023-04-03T11:14:09;10.77;;;10.17;;
489;SDS011;231;48.120;11.576;2023-04-03T11:16:43;10.10;;;9.60;;
489;SDS011;231;48.120;11.576;2023-04-03T11:19:15;10.03;;;9.53;;
489;SDS011;231;48.120;11.576;2023-04-03T11:21:49;9.23;;;8.73;;
489;SDS011;231;48.120;11.576;2023-04-03T11:24:22;10.13;;;9.63;;
489;SDS011;231;48.120;11.576;2023-04-03T11:26:51;9.13;;;8.63;;
489;SDS011;231;48.120;11.576;2023-04-03T11:29:22;8.77;;;8.27;;
489;SDS011;231;48.120;11.576;2023-04-03T11:32:00;9.90;;;6.70;;
489;SDS011;231;48.120;11.576;2023-04-03T11:34:34;5.43;;;5.13;;
489;SDS011;231;48.120;11.576;2023-04-03T11:37:05;4.73;;;4.43;;
489;SDS011;231;48.120;11.576;2023-04-03T11:39:45;5.60;;;5.30;;
489;SDS011;231;48.120;11.576;2023-04-03T11:42:17;6.07;;;4.53;;
489;SDS011;231;48.120;11.576;2023-04-03T11:44:53;4.93;;;4.63;;
489;SDS011;231;48.120;11.576;2023-04-03T11:47:59;5.70;;;3.53;;
489;SDS011;231;48.120;11.576;2023-04-03T11:50:30;3.70;;;3.50;;
489;SDS011;231;48.120;11.576;2023-04-03T11:53:27;4.57;;;4.27;;
489;SDS011;231;48.120;11.576;2023-04-03T11:55:57;4.03;;;3.80;;
489;SDS011;231;48.120;11.576;2023-04-03T11:58:26;4.93;;;3.83;;
489;SDS011;231;48.120;11.576;2023-04-03T12:00:55;5.23;;;4.60;;
489;SDS011;231;48.120;11.576;2023-04-03T12:06:42;5.70;;;3.20;;
489;SDS011;231;48.120;11.576;2023-04-03T12:12:01;3.30;;;3.10;;
489;SDS011;231;48.120;11.576;2023-04-03T12:14:50;3.10;;;2.90;;
489;SDS011;231;48.120;11.576;2023-04-03T12:17:20;4.27;;;3.20;;
489;SDS011;231;48.120;11.576;2023-04-03T12:19:51;4.33;;;3.60;;
489;SDS011;231;48.120;11.576;2023-04-03T12:22:19;3.53;;;2.73;;
489;SDS011;231;48.120;11.576;2023-04-03T12:24:47;2.93;;;2.73;;
489;SDS011;231;48.120;11.576;2023-04-03T12:27:25;3.77;;;3.00;;
489;SDS011;231;48.120;11.576;2023-04-03T12:29:59;3.30;;;3.10;;
489;SDS011;231;48.120;11.576;2023-04-03T12:32:51;3.90;;;3.70;;
489;SDS011;231;48.120;11.576;2023-04-03T12:35:34;2.90;;;2.70;;
489;SDS011;231;48.120;11.576;2023-04-03T12:38:17;3.30;;;3.10;;
489;SDS011;231;48.120;11.576;2023-04-03T12:41:04;4.80;;;3.03;;
489;SDS011;231;48.120;11.576;2023-04-03T12:43:49;5.03;;;3.33;;
489;SDS011;231;48.120;11.576;2023-04-03T12:46:23;3.13;;;3.00;;
489;SDS011;231;48.120;11.576;2023-04-03T12:48:53;3.83;;;3.20;;
489;SDS011;231;48.120;11.576;2023-04-03T12:51:25;4.83;;;2.80;;
489;SDS011;231;48.120;11.576;2023-04-03T12:54:01;3.00;;;2.60;;
489;SDS011;231;48.120;11.576;2023-04-03T12:56:31;5.63;;;3.70;;
489;SDS011;231;48.120;11.576;2023-04-03T12:59:12;2.90;;;2.70;;
489;SDS011;231;48.120;11.576;2023-04-03T13:01:41;3.00;;;2.80;;
489;SDS011;231;48.120;11.576;2023-04-03T13:04:09;2.67;;;2.47;;
489;SDS011;231;48.120;11.576;2023-04-03T13:06:40;3.23;;;2.40;;
489;SDS011;231;48.120;11.576;2023-04-03T13:09:17;3.00;;;2.80;;
489;SDS011;231;48.120;11.576;2023-04-03T13:11:47;2.80;;;2.60;;
489;SDS011;231;48.120;11.576;2023-04-03T13:14:17;3.23;;;2.63;;
489;SDS011;231;48.120;11.576;2023-04-03T13:16:52;2.63;;;2.43;;
489;SDS011;231;48.120;11.576;2023-04-03T13:19:20;3.20;;;2.30;;
489;SDS011;231;48.120;11.576;2023-04-03T13:21:50;2.33;;;2.13;;
489;SDS011;231;48.120;11.576;2023-04-03T13:24:22;2.30;;;2.10;;
489;SDS011;231;48.120;11.576;2023-04-03T13:26:50;5.10;;;2.50;;
489;SDS011;231;48.120;11.576;2023-04-03T13:29:20;4.10;;;2.10;;
489;SDS011;231;48.120;11.576;2023-04-03T13:31:52;4.20;;;3.50;;
489;SDS011;231;48.120;11.576;2023-04-03T13:34:21;3.40;;;2.50;;
489;SDS011;231;48.120;11.576;2023-04-03T13:36:57;2.40;;;2.20;;
489;SDS011;231;48.120;11.576;2023-04-03T13:39:26;2.63;;;2.20;;
489;SDS011;231;48.120;11.576;2023-04-03T13:41:55;3.83;;;2.43;;
489;SDS011;231;48.120;11.576;2023-04-03T13:44:27;2.60;;;2.37;;
489;SDS011;231;48.120;11.576;2023-04-03T13:46:56;2.30;;;2.10;;
489;SDS011;231;48.120;11.576;2023-04-03T13:49:28;2.60;;;2.40;;
489;SDS011;231;48.120;11.576;2023-04-03T13:51:59;2.90;;;2.50;;
489;SDS011;231;48.120;11.576;2023-04-03T13:54:29;3.03;;;2.83;;
489;SDS011;231;48.120;11.576;2023-04-03T13:56:58;3.30;;;2.43;;
489;SDS011;231;48.120;11.576;2023-04-03T13:59:27;3.23;;;3.03;;
489;SDS011;231;48.120;11.576;2023-04-03T14:02:09;2.20;;;2.00;;
489;SDS011;231;48.120;11.576;2023-04-03T14:04:48;2.40;;;1.97;;
489;SDS011;231;48.120;11.576;2023-04-03T14:07:22;1.97;;;1.90;;
489;SDS011;231;48.120;11.576;2023-04-03T14:09:50;7.33;;;2.77;;
489;SDS011;231;48.120;11.576;2023-04-03T14:12:19;3.10;;;2.27;;
489;SDS011;231;48.120;11.576;2023-04-03T14:14:50;2.73;;;2.57;;
489;SDS011;231;48.120;11.576;2023-04-03T14:17:18;2.20;;;2.00;;
489;SDS011;231;48.120;11.576;2023-04-03T14:19:47;2.50;;;2.30;;
489;SDS011;231;48.120;11.576;2023-04-03T14:22:17;2.47;;;2.27;;
489;SDS011;231;48.120;11.576;2023-04-03T14:24:47;2.33;;;2.10;;
489;SDS011;231;48.120;11.576;2023-04-03T14:27:17;2.47;;;2.27;;
489;SDS011;231;48.120;11.576;2023-04-03T14:29:45;2.80;;;2.57;;
489;SDS011;231;48.120;11.576;2023-04-03T14:32:13;1.70;;;1.60;;
489;SDS011;231;48.120;11.576;2023-04-03T14:34:41;2.40;;;2.20;;
489;SDS011;231;48.120;11.576;2023-04-03T14:37:09;2.80;;;2.40;;
489;SDS011;231;48.120;11.576;2023-04-03T14:39:37;2.90;;;2.13;;
489;SDS011;231;48.120;11.576;2023-04-03T14:42:09;2.40;;;2.20;;
489;SDS011;231;48.120;11.576;2023-04-03T14:44:38;2.37;;;1.83;;
489;SDS011;231;48.120;11.576;2023-04-03T14:47:08;2.70;;;2.50;;
489;SDS011;231;48.120;11.576;2023-04-03T14:49:36;2.70;;;2.10;;
489;SDS011;231;48.120;11.576;2023-04-03T14:52:03;3.10;;;1.70;;
489;SDS011;231;48.120;11.576;2023-04-03T14:54:30;3.17;;;2.97;;
489;SDS011;231;48.120;11.576;2023-04-03T14:56:58;2.27;;;2.07;;
489;SDS011;231;48.120;11.576;2023-04-03T14:59:27;4.10;;;3.10;;
489;SDS011;231;48.120;11.576;2023-04-03T15:01:55;2.93;;;2.50;;
489;SDS011;231;48.120;11.576;2023-04-03T15:04:22;2.30;;;2.03;;
489;SDS011;231;48.120;11.576;2023-04-03T15:06:52;2.47;;;2.27;;
489;SDS011;231;48.120;11.576;2023-04-03T15:09:19;2.23;;;1.60;;
489;SDS011;231;48.120;11.576;2023-04-03T15:11:48;1.73;;;1.67;;
489;SDS011;231;48.120;11.576;2023-04-03T15:14:15;4.00;;;2.20;;
489;SDS011;231;48.120;11.576;2023-04-03T15:16:43;2.30;;;2.10;;
489;SDS011;231;48.120;11.576;2023-04-03T15:19:10;2.27;;;1.50;;
489;SDS011;231;48.120;11.576;2023-04-03T15:21:37;1.87;;;1.83;;
489;SDS011;231;48.120;11.576;2023-04-03T15:24:05;2.60;;;1.93;;
489;SDS011;231;48.120;11.576;2023-04-03T15:26:32;2.40;;;1.97;;
489;SDS011;231;48.120;11.576;2023-04-03T15:28:59;2.90;;;2.20;;
489;SDS011;231;48.120;11.576;2023-04-03T15:31:26;4.10;;;2.07;;
489;SDS011;231;48.120;11.576;2023-04-03T15:33:55;4.40;;;2.73;;
489;SDS011;231;48.120;11.576;2023-04-03T15:36:21;4.03;;;1.70;;
489;SDS011;231;48.120;11.576;2023-04-03T15:38:48;2.70;;;2.50;;
489;SDS011;231;48.120;11.576;2023-04-03T15:41:15;1.97;;;1.40;;
489;SDS011;231;48.120;11.576;2023-04-03T15:43:42;2.63;;;1.60;;
489;SDS011;231;48.120;11.576;2023-04-03T15:46:09;2.20;;;2.03;;
489;SDS011;231;48.120;11.576;2023-04-03T15:48:36;2.30;;;2.10;;